Time;durP1;ratioP1;P1;durP2;ratioP2;P2;SDS_P1;SDS_P2;PMS_P1;PMS_P2;Temp;Humidity;BMP_temperature;BMP_pressure;BME280_temperature;BME280_humidity;BME280_pressure;Samples;Min_cycle;Max_cycle;Signal;HPM_P1;HPM_P2
2022/04/25 00:00:43;;;;;;;2.72;1.15;;;11.10;99.90;;;;;;4988858;28;20031;-87
2022/04/25 00:03:29;;;;;;;1.95;1.00;;;11.20;99.90;;;;;;4980472;28;20037;-88
2022/04/25 00:05:59;;;;;;;2.47;1.17;;;11.20;99.90;;;;;;4974190;28;20089;-88
2022/04/25 00:08:45;;;;;;;6.03;1.10;;;11.20;99.90;;;;;;4974342;28;20026;-88
2022/04/25 00:11:26;;;;;;;1.55;1.02;;;11.30;99.90;;;;;;4963706;28;20026;-88
2022/04/25 00:14:31;;;;;;;2.50;1.15;;;11.30;99.90;;;;;;4974631;28;20113;-88
2022/04/25 00:17:08;;;;;;;6.85;1.42;;;11.30;99.90;;;;;;4969751;28;20027;-88
2022/04/25 00:19:54;;;;;;;3.20;1.83;;;11.30;99.90;;;;;;4977927;28;20070;-88
2022/04/25 00:26:12;;;;;;;3.58;2.53;;;11.30;99.90;;;;;;4959763;28;20038;-85
2022/04/25 00:28:38;;;;;;;4.95;2.25;;;11.40;99.90;;;;;;4975377;28;20026;-85
2022/04/25 00:31:05;;;;;;;2.40;1.42;;;11.40;99.90;;;;;;4977032;28;20393;-85
2022/04/25 00:33:41;;;;;;;4.60;1.80;;;11.40;99.90;;;;;;4991443;28;20018;-84
2022/04/25 00:36:11;;;;;;;2.75;1.52;;;11.40;99.90;;;;;;4990420;28;20023;-83
2022/04/25 00:38:54;;;;;;;3.28;1.73;;;11.40;99.90;;;;;;4992190;28;20061;-84
2022/04/25 00:41:23;;;;;;;4.32;1.70;;;11.40;99.90;;;;;;4986025;28;20026;-84
2022/04/25 00:46:59;;;;;;;4.68;1.60;;;11.50;99.90;;;;;;4928100;29;20055;-84
2022/04/25 00:49:31;;;;;;;5.07;1.20;;;11.50;99.90;;;;;;4989882;28;20039;-84
2022/04/25 00:52:11;;;;;;;;;;;11.40;99.90;;;;;;4988915;28;20030;-84
2022/04/25 01:01:52;;;;;;;;;;;;;;;;;;;;;
2022/04/25 01:21:59;;;;;;;2.28;1.10;;;11.50;99.90;;;;;;4785411;29;20041;-84
2022/04/25 01:31:15;;;;;;;4.60;1.30;;;11.30;99.90;;;;;;4840721;29;20067;-84
2022/04/25 01:34:41;;;;;;;;;;;;;;;;;;;;;
2022/04/25 01:37:31;;;;;;;6.53;0.95;;;11.10;99.90;;;;;;4839286;29;20026;-84
2022/04/25 01:40:58;;;;;;;2.60;0.90;;;11.10;99.90;;;;;;4839362;29;20038;-84
2022/04/25 01:46:42;;;;;;;3.38;1.00;;;10.90;99.90;;;;;;4898350;29;20507;-87
2022/04/25 01:49:10;;;;;;;3.85;1.10;;;10.90;99.90;;;;;;4960270;28;20042;-87
2022/04/25 01:51:39;;;;;;;1.73;1.00;;;10.80;99.90;;;;;;4984930;28;20054;-87
2022/04/25 01:54:05;;;;;;;2.47;1.00;;;10.70;99.90;;;;;;4980167;28;20054;-87
2022/04/25 01:56:32;;;;;;;5.65;1.08;;;10.60;99.90;;;;;;4981811;28;20058;-86
2022/04/25 01:58:58;;;;;;;5.60;0.93;;;10.60;99.90;;;;;;4976223;28;20089;-86
2022/04/25 02:01:24;;;;;;;3.92;1.10;;;10.50;99.90;;;;;;4984816;28;20018;-86
2022/04/25 02:03:52;;;;;;;2.92;1.10;;;10.50;99.90;;;;;;4979750;28;20482;-86
2022/04/25 02:06:18;;;;;;;12.50;1.00;;;10.60;99.90;;;;;;4981343;28;20030;-86
2022/04/25 02:08:44;;;;;;;3.20;0.98;;;10.60;99.90;;;;;;4993404;28;20466;-86
2022/04/25 02:11:22;;;;;;;2.35;1.00;;;10.70;99.90;;;;;;4989701;28;20055;-86
2022/04/25 02:13:52;;;;;;;3.85;1.20;;;10.80;99.90;;;;;;4988037;28;20547;-86
2022/04/25 02:20:12;;;;;;;2.33;1.15;;;10.90;99.90;;;;;;4986121;28;20046;-84
2022/04/25 02:22:44;;;;;;;5.05;1.13;;;11.00;99.90;;;;;;4984140;28;20141;-83
2022/04/25 02:25:13;;;;;;;4.13;1.00;;;11.10;99.90;;;;;;4988270;28;20089;-83
2022/04/25 02:27:48;;;;;;;3.33;1.20;;;11.10;99.90;;;;;;4978129;28;20049;-84
2022/04/25 02:34:50;;;;;;;1.83;1.10;;;11.00;99.90;;;;;;4932689;29;20114;-85
2022/04/25 02:40:25;;;;;;;3.60;1.55;;;11.10;99.90;;;;;;4968337;28;20516;-84
2022/04/25 02:43:45;;;;;;;;;;;;;;;;;;;;;
2022/04/25 02:50:37;;;;;;;1.63;0.95;;;11.20;99.90;;;;;;4891310;29;20052;-85
2022/04/25 02:53:19;;;;;;;1.85;1.10;;;11.20;99.90;;;;;;4872863;29;20527;-85
2022/04/25 02:59:13;;;;;;;;;;;;;;;;;;;;;
2022/04/25 03:01:57;;;;;;;2.85;0.93;;;11.10;99.90;;;;;;4892480;29;20035;-85
2022/04/25 03:04:44;;;;;;;3.53;0.88;;;11.00;99.90;;;;;;4893887;29;20059;-85
2022/04/25 03:07:13;;;;;;;1.50;0.93;;;10.90;99.90;;;;;;4893916;29;20139;-84
2022/04/25 03:20:07;;;;;;;1.95;0.85;;;10.70;99.90;;;;;;4868078;29;20035;-83
2022/04/25 03:23:14;;;;;;;7.65;0.90;;;10.60;99.90;;;;;;4902201;29;20028;-83
2022/04/25 03:26:04;;;;;;;2.55;1.30;;;10.50;99.90;;;;;;4902727;29;20044;-83
2022/04/25 03:28:45;;;;;;;3.50;1.00;;;10.50;99.90;;;;;;4897014;29;20042;-83
2022/04/25 03:31:22;;;;;;;1.60;0.93;;;10.30;99.90;;;;;;4903332;29;20107;-83
2022/04/25 03:34:27;;;;;;;5.30;1.45;;;10.20;99.90;;;;;;4952654;28;20071;-83
2022/04/25 03:36:56;;;;;;;2.78;1.02;;;10.20;99.90;;;;;;4939392;28;20023;-83
2022/04/25 03:39:58;;;;;;;3.50;1.20;;;10.10;99.90;;;;;;4934773;28;20034;-83
2022/04/25 03:43:19;;;;;;;;;;;;;;;;;;;;;
2022/04/25 03:46:16;;;;;;;2.78;1.20;;;10.00;99.90;;;;;;4876166;28;20045;-84
2022/04/25 03:49:02;;;;;;;4.88;1.02;;;10.00;99.90;;;;;;4952684;28;20023;-84
2022/04/25 03:51:29;;;;;;;3.88;1.33;;;10.10;99.90;;;;;;4958364;28;20034;-85
2022/04/25 03:53:55;;;;;;;1.77;1.13;;;10.20;99.90;;;;;;4972531;28;20436;-86
2022/04/25 03:59:06;;;;;;;2.97;1.10;;;10.40;99.90;;;;;;4974054;28;20037;-86
2022/04/25 04:01:36;;;;;;;6.57;1.65;;;10.50;99.90;;;;;;4966999;28;20026;-87
2022/04/25 04:04:08;;;;;;;3.67;1.20;;;10.60;99.90;;;;;;4967354;28;20058;-86
2022/04/25 04:06:45;;;;;;;5.15;1.25;;;10.70;99.90;;;;;;4983162;28;20441;-86
2022/04/25 04:12:55;;;;;;;3.15;1.20;;;10.90;99.90;;;;;;4969568;28;20049;-86
2022/04/25 04:15:21;;;;;;;2.15;0.95;;;11.00;99.90;;;;;;4968335;28;21052;-87
2022/04/25 04:18:01;;;;;;;4.28;1.02;;;11.00;99.90;;;;;;4960715;28;20028;-86
2022/04/25 04:20:27;;;;;;;4.07;1.10;;;11.00;99.90;;;;;;4962212;28;20486;-87
2022/04/25 04:23:25;;;;;;;3.15;1.10;;;11.00;99.90;;;;;;4960206;28;20038;-85
2022/04/25 04:25:48;;;;;;;2.03;1.00;;;11.00;99.90;;;;;;4961057;28;20039;-85
2022/04/25 04:28:19;;;;;;;3.13;1.33;;;10.90;99.90;;;;;;4971432;28;20053;-86
2022/04/25 04:31:01;;;;;;;2.47;1.15;;;10.90;99.90;;;;;;4969413;28;20032;-85
2022/04/25 04:33:29;;;;;;;1.83;0.90;;;10.90;99.90;;;;;;4975061;28;20026;-85
2022/04/25 04:36:22;;;;;;;1.88;0.93;;;11.00;99.90;;;;;;4968358;28;20024;-85
2022/04/25 04:38:48;;;;;;;5.40;0.90;;;11.00;99.90;;;;;;4956524;28;20455;-86
2022/04/25 04:41:42;;;;;;;2.40;0.77;;;11.00;99.90;;;;;;4958095;28;20118;-84
2022/04/25 04:44:11;;;;;;;2.13;0.90;;;11.00;99.90;;;;;;4956504;28;20663;-87
2022/04/25 04:46:41;;;;;;;2.13;0.88;;;11.10;99.90;;;;;;4964301;28;20436;-84
2022/04/25 04:49:07;;;;;;;5.05;1.23;;;11.10;99.90;;;;;;4975450;28;20022;-85
2022/04/25 04:51:36;;;;;;;5.40;1.20;;;11.10;99.90;;;;;;4962866;28;20561;-83
2022/04/25 04:54:02;;;;;;;1.90;0.90;;;11.20;99.90;;;;;;4966460;28;20031;-85
2022/04/25 04:56:32;;;;;;;5.80;1.10;;;11.20;99.90;;;;;;4963210;28;20043;-85
2022/04/25 04:59:02;;;;;;;1.80;0.80;;;11.30;99.90;;;;;;4975508;28;20091;-85
2022/04/25 05:01:27;;;;;;;1.95;0.90;;;11.50;99.90;;;;;;4962641;28;20031;-85
2022/04/25 05:03:56;;;;;;;2.10;1.08;;;11.50;99.90;;;;;;4975135;28;20023;-86
2022/04/25 05:06:22;;;;;;;3.50;0.93;;;11.60;99.90;;;;;;4967380;28;20027;-85
2022/04/25 05:08:48;;;;;;;2.92;1.00;;;11.70;99.90;;;;;;4956231;28;20059;-85
2022/04/25 05:11:14;;;;;;;2.00;1.00;;;11.70;99.90;;;;;;4964385;28;20498;-86
2022/04/25 05:13:39;;;;;;;3.25;0.98;;;11.80;99.90;;;;;;4967846;28;20035;-88
2022/04/25 05:16:09;;;;;;;1.80;0.90;;;11.90;99.90;;;;;;4957102;28;20110;-86
2022/04/25 05:18:38;;;;;;;1.98;0.93;;;11.90;99.90;;;;;;4973855;28;20089;-87
2022/04/25 05:21:05;;;;;;;2.40;0.85;;;12.00;99.90;;;;;;4968132;28;20027;-87
2022/04/25 05:23:31;;;;;;;3.00;1.10;;;12.10;99.90;;;;;;4971835;28;20018;-89
2022/04/25 05:25:58;;;;;;;1.83;0.98;;;12.10;99.90;;;;;;4968648;28;20031;-90
2022/04/25 05:28:27;;;;;;;1.30;0.90;;;12.20;99.90;;;;;;4972535;28;20033;-88
2022/04/25 05:30:54;;;;;;;3.33;1.00;;;12.20;99.90;;;;;;4950424;28;20023;-86
2022/04/25 05:33:19;;;;;;;1.67;1.05;;;12.30;99.90;;;;;;4974697;28;20030;-85
2022/04/25 05:35:46;;;;;;;2.13;0.77;;;12.30;99.90;;;;;;4969084;28;20027;-86
2022/04/25 05:38:12;;;;;;;8.05;1.30;;;12.40;99.90;;;;;;4958789;28;20023;-84
2022/04/25 05:40:48;;;;;;;4.07;1.23;;;12.40;99.90;;;;;;4960085;28;20062;-85
2022/04/25 05:43:13;;;;;;;4.07;0.80;;;12.50;99.90;;;;;;4970083;28;20031;-83
2022/04/25 05:45:40;;;;;;;2.50;0.93;;;12.60;99.90;;;;;;4960076;28;20023;-83
2022/04/25 05:51:58;;;;;;;3.83;0.90;;;12.70;99.90;;;;;;4970351;28;20030;-84
2022/04/25 05:53:37;;;;;;;2.92;0.95;;;12.90;99.90;;;;;;4973644;28;20089;-87
2022/04/25 05:56:03;;;;;;;2.15;0.77;;;13.00;99.90;;;;;;4967501;28;20031;-86
2022/04/25 05:58:29;;;;;;;2.50;0.88;;;13.10;99.90;;;;;;4957209;28;20038;-87
2022/04/25 06:00:55;;;;;;;2.90;1.00;;;13.30;99.90;;;;;;4945452;28;20031;-87
2022/04/25 06:03:20;;;;;;;5.03;1.00;;;13.40;99.90;;;;;;4973528;28;20241;-87
2022/04/25 06:05:46;;;;;;;1.45;0.65;;;13.60;99.90;;;;;;4967690;28;20058;-83
2022/04/25 06:08:12;;;;;;;1.67;1.00;;;13.80;99.90;;;;;;4959201;28;20039;-86
2022/04/25 06:10:39;;;;;;;7.72;1.00;;;13.90;99.90;;;;;;4960649;28;20030;-85
2022/04/25 06:13:08;;;;;;;3.20;0.77;;;13.90;99.90;;;;;;4959831;28;20035;-85
2022/04/25 06:15:34;;;;;;;3.35;1.00;;;13.90;99.90;;;;;;4966339;28;20024;-85
2022/04/25 06:17:59;;;;;;;1.83;0.70;;;14.00;99.90;;;;;;4969752;28;20030;-86
2022/04/25 06:20:27;;;;;;;4.38;0.80;;;14.10;99.90;;;;;;4969202;28;20552;-88
2022/04/25 06:22:55;;;;;;;2.53;0.88;;;14.20;99.90;;;;;;4949480;28;20041;-83
2022/04/25 06:25:21;;;;;;;1.38;0.70;;;14.20;99.90;;;;;;4967634;28;20019;-85
2022/04/25 06:27:47;;;;;;;2.28;0.80;;;14.30;99.90;;;;;;4968719;28;20039;-89
2022/04/25 06:30:13;;;;;;;5.35;0.98;;;14.40;99.90;;;;;;4967476;28;20019;-90
2022/04/25 06:32:39;;;;;;;2.05;0.90;;;14.50;99.90;;;;;;4960618;28;20596;-90
2022/04/25 06:35:05;;;;;;;1.90;0.90;;;14.50;99.90;;;;;;4958602;28;20031;-89
2022/04/25 06:37:31;;;;;;;1.23;0.70;;;14.60;99.90;;;;;;4963327;28;20055;-87
2022/04/25 06:39:56;;;;;;;8.25;1.10;;;14.70;99.90;;;;;;4968764;28;20050;-89
2022/04/25 06:42:25;;;;;;;2.30;1.00;;;14.80;99.90;;;;;;4950124;28;20557;-90
2022/04/25 06:44:50;;;;;;;5.10;1.05;;;14.80;99.90;;;;;;4961592;28;20101;-88
2022/04/25 06:47:16;;;;;;;2.20;0.90;;;14.80;99.90;;;;;;4962597;28;20549;-87
2022/04/25 06:49:42;;;;;;;1.85;0.55;;;14.80;99.90;;;;;;4939479;28;20093;-87
2022/04/25 06:52:09;;;;;;;3.25;1.02;;;14.90;99.90;;;;;;4951077;28;20050;-86
2022/04/25 06:54:35;;;;;;;1.13;0.73;;;15.00;99.90;;;;;;4971864;28;20027;-86
2022/04/25 06:57:02;;;;;;;2.22;0.85;;;15.10;99.90;;;;;;4963852;28;20029;-86
2022/04/25 06:59:27;;;;;;;2.85;0.90;;;15.20;99.90;;;;;;4944141;28;20042;-87
2022/04/25 07:01:53;;;;;;;3.15;0.88;;;15.30;99.90;;;;;;4966730;28;20485;-87
2022/04/25 07:04:20;;;;;;;1.45;0.85;;;15.40;99.90;;;;;;4957714;28;20031;-88
2022/04/25 07:06:45;;;;;;;3.60;1.02;;;15.40;99.90;;;;;;4968055;28;20043;-87
2022/04/25 07:09:12;;;;;;;1.73;0.93;;;15.40;99.90;;;;;;4942494;28;20096;-87
2022/04/25 07:11:43;;;;;;;2.35;0.90;;;15.40;99.90;;;;;;4960907;28;20106;-87
2022/04/25 07:14:14;;;;;;;3.70;1.00;;;15.40;99.90;;;;;;4970745;28;20023;-87
2022/04/25 07:16:44;;;;;;;2.30;0.80;;;15.50;99.90;;;;;;4947063;28;20434;-85
2022/04/25 07:19:13;;;;;;;2.65;0.95;;;15.50;99.90;;;;;;4962831;28;20509;-87
2022/04/25 07:29:52;;;;;;;2.80;0.80;;;15.90;99.90;;;;;;4956748;28;20038;-83
2022/04/25 07:32:18;;;;;;;1.60;0.80;;;16.10;99.90;;;;;;4960265;28;20479;-84
2022/04/25 07:34:47;;;;;;;2.97;0.63;;;16.30;99.90;;;;;;4940559;28;20146;-85
2022/04/25 07:37:13;;;;;;;7.13;0.90;;;16.50;99.90;;;;;;4965846;28;20067;-86
2022/04/25 07:39:39;;;;;;;2.83;0.90;;;16.70;99.90;;;;;;4955033;28;20023;-86
2022/04/25 07:42:07;;;;;;;1.95;1.00;;;16.80;99.90;;;;;;4958816;28;20050;-83
2022/04/25 07:44:33;;;;;;;6.60;1.15;;;16.80;99.90;;;;;;4954306;28;20057;-84
2022/04/25 07:46:59;;;;;;;1.75;0.73;;;16.90;99.90;;;;;;4963161;28;20038;-84
2022/04/25 07:49:26;;;;;;;3.60;0.80;;;16.90;99.90;;;;;;4959217;28;20088;-84
2022/04/25 07:51:54;;;;;;;2.20;0.90;;;17.00;99.90;;;;;;4960957;28;20047;-84
2022/04/25 07:54:23;;;;;;;3.35;0.90;;;16.90;99.90;;;;;;4965509;28;20026;-84
2022/04/25 07:56:51;;;;;;;3.38;0.77;;;17.00;99.90;;;;;;4963832;28;20027;-86
2022/04/25 07:59:19;;;;;;;2.03;0.90;;;16.90;99.90;;;;;;4956988;28;20043;-87
2022/04/25 08:01:45;;;;;;;2.72;1.10;;;16.70;99.90;;;;;;4967664;28;20031;-85
2022/04/25 08:04:11;;;;;;;2.80;0.60;;;16.30;99.90;;;;;;4972079;28;20030;-81
2022/04/25 08:06:38;;;;;;;2.03;1.02;;;16.30;99.90;;;;;;4962045;28;20030;-79
2022/04/25 08:09:05;;;;;;;1.42;1.33;;;16.40;99.90;;;;;;4956721;28;20031;-81
2022/04/25 08:11:31;;;;;;;3.47;1.00;;;16.60;99.90;;;;;;4961717;28;20054;-89
2022/04/25 08:19:26;;;;;;;1.42;1.00;;;17.30;99.90;;;;;;4965653;28;20030;-89
2022/04/25 08:21:54;;;;;;;4.40;1.30;;;17.20;99.90;;;;;;4950365;28;20023;-87
2022/04/25 08:24:19;;;;;;;2.50;0.95;;;16.90;99.90;;;;;;4956613;28;20425;-82
2022/04/25 08:26:45;;;;;;;1.85;1.20;;;16.80;99.90;;;;;;4958693;28;20035;-84
2022/04/25 08:29:11;;;;;;;2.72;1.10;;;16.90;99.90;;;;;;4960989;28;20093;-81
2022/04/25 08:31:37;;;;;;;2.42;1.10;;;17.00;99.90;;;;;;4962769;28;20027;-85
2022/04/25 08:34:05;;;;;;;2.15;0.95;;;17.20;99.90;;;;;;4954154;28;20098;-81
2022/04/25 08:36:32;;;;;;;2.15;1.27;;;17.40;99.90;;;;;;4945511;28;20502;-82
2022/04/25 08:38:59;;;;;;;1.55;1.00;;;17.40;99.90;;;;;;4956758;28;20024;-81
2022/04/25 08:41:29;;;;;;;1.75;1.20;;;17.20;99.90;;;;;;4958858;28;20027;-81
2022/04/25 08:43:56;;;;;;;2.60;0.90;;;17.20;99.90;;;;;;4955133;28;20029;-81
2022/04/25 08:46:22;;;;;;;1.35;0.90;;;17.00;99.90;;;;;;4962278;28;20039;-83
2022/04/25 08:48:50;;;;;;;3.22;1.50;;;17.00;99.90;;;;;;4965284;28;20457;-83
2022/04/25 08:51:16;;;;;;;3.78;1.30;;;17.10;99.90;;;;;;4970683;28;20050;-83
2022/04/25 08:53:44;;;;;;;2.00;1.35;;;17.10;99.90;;;;;;4958978;28;20075;-83
2022/04/25 08:56:12;;;;;;;1.80;1.27;;;17.10;99.90;;;;;;4967012;28;20375;-82
2022/04/25 08:58:41;;;;;;;2.05;0.95;;;17.00;99.90;;;;;;4970413;28;20019;-83
2022/04/25 09:01:10;;;;;;;2.40;1.42;;;16.90;99.90;;;;;;4952334;28;20364;-83
2022/04/25 09:03:36;;;;;;;5.60;1.60;;;17.00;99.90;;;;;;4964440;28;20066;-83
2022/04/25 09:06:03;;;;;;;2.53;1.13;;;17.00;99.90;;;;;;4964424;28;20022;-82
2022/04/25 09:08:29;;;;;;;2.67;1.00;;;17.00;99.90;;;;;;4967730;28;20058;-84
2022/04/25 09:12:09;;;;;;;3.47;1.40;;;17.00;99.90;;;;;;4950045;28;20050;-82
2022/04/25 09:13:44;;;;;;;2.63;1.30;;;16.90;99.90;;;;;;4965533;28;20035;-85
2022/04/25 09:16:17;;;;;;;3.70;1.40;;;16.80;99.90;;;;;;4947331;28;20051;-83
2022/04/25 09:18:43;;;;;;;3.70;2.03;;;16.80;99.90;;;;;;4963518;28;20027;-83
2022/04/25 09:21:18;;;;;;;5.22;2.17;;;16.80;99.90;;;;;;4951540;28;20038;-84
2022/04/25 09:23:44;;;;;;;3.13;1.40;;;17.00;99.90;;;;;;4946608;28;20038;-83
2022/04/25 09:26:11;;;;;;;2.95;1.40;;;17.00;99.90;;;;;;4952119;28;20035;-90
2022/04/25 09:28:47;;;;;;;3.60;1.33;;;17.10;99.90;;;;;;4951529;28;20028;-87
2022/04/25 09:31:15;;;;;;;3.85;1.63;;;16.80;99.90;;;;;;4970315;28;20083;-84
2022/04/25 09:33:41;;;;;;;1.98;1.48;;;16.30;99.90;;;;;;4974912;28;20070;-85
2022/04/25 09:36:06;;;;;;;2.40;1.42;;;16.10;99.90;;;;;;4949682;28;20486;-85
2022/04/25 09:38:35;;;;;;;3.60;2.40;;;16.00;99.90;;;;;;4955916;28;20037;-84
2022/04/25 09:41:01;;;;;;;4.15;2.40;;;16.00;99.90;;;;;;4966724;28;20030;-87
2022/04/25 09:43:32;;;;;;;5.72;2.28;;;15.80;99.90;;;;;;4972286;28;20657;-85
2022/04/25 09:46:08;;;;;;;2.70;1.77;;;15.60;99.90;;;;;;4967260;28;20031;-86
2022/04/25 09:48:36;;;;;;;7.82;1.50;;;15.40;99.90;;;;;;4962711;28;20023;-86
2022/04/25 09:51:11;;;;;;;3.05;1.63;;;15.30;99.90;;;;;;4967632;28;20586;-85
2022/04/25 09:53:52;;;;;;;5.35;2.83;;;15.40;99.90;;;;;;4947103;28;20034;-87
2022/04/25 09:56:21;;;;;;;4.75;2.35;;;15.40;99.90;;;;;;4943892;28;20015;-83
2022/04/25 09:59:09;;;;;;;3.45;1.40;;;15.30;99.90;;;;;;4957765;28;20078;-83
2022/04/25 10:01:39;;;;;;;3.90;2.10;;;15.00;99.90;;;;;;4962778;28;20027;-83
2022/04/25 10:04:26;;;;;;;9.52;4.72;;;14.90;99.90;;;;;;4937844;28;20023;-83
2022/04/25 10:06:53;;;;;;;10.75;6.15;;;15.10;99.90;;;;;;4941032;28;20035;-83
2022/04/25 10:09:21;;;;;;;12.70;5.80;;;15.40;99.90;;;;;;4951531;28;20027;-85
2022/04/25 10:11:48;;;;;;;22.25;13.57;;;15.60;99.90;;;;;;4960604;28;20058;-84
2022/04/25 10:14:15;;;;;;;7.43;4.22;;;15.80;99.90;;;;;;4971363;28;20097;-84
2022/04/25 10:16:46;;;;;;;19.50;13.27;;;15.80;99.90;;;;;;4943256;28;20378;-82
2022/04/25 10:19:13;;;;;;;12.05;2.60;;;15.80;99.90;;;;;;4954629;28;20537;-84
2022/04/25 10:21:40;;;;;;;15.57;6.93;;;15.90;99.90;;;;;;4955489;28;20027;-86
2022/04/25 10:24:10;;;;;;;6.40;3.53;;;15.80;99.90;;;;;;4952441;28;20031;-86
2022/04/25 10:26:36;;;;;;;10.88;7.72;;;15.80;99.90;;;;;;4945123;28;20585;-86
2022/04/25 10:29:11;;;;;;;4.50;1.65;;;16.00;99.90;;;;;;4971818;28;20110;-85
2022/04/25 10:31:41;;;;;;;3.28;1.52;;;16.00;99.90;;;;;;4961677;28;20019;-85
2022/04/25 10:34:08;;;;;;;11.00;4.85;;;15.90;99.90;;;;;;4971036;28;20054;-84
2022/04/25 10:36:46;;;;;;;4.50;2.30;;;15.80;99.90;;;;;;4962338;28;20074;-83
2022/04/25 10:39:22;;;;;;;33.88;20.50;;;15.80;99.90;;;;;;4959328;28;20031;-82
2022/04/25 10:44:44;;;;;;;6.07;2.50;;;16.10;99.90;;;;;;4968537;28;20034;-82
2022/04/25 10:47:13;;;;;;;3.85;1.20;;;16.30;99.90;;;;;;4950043;28;20047;-83
2022/04/25 10:49:47;;;;;;;4.45;1.80;;;16.30;99.90;;;;;;4967779;28;20034;-83
2022/04/25 10:52:54;;;;;;;5.75;3.00;;;16.30;99.90;;;;;;4956676;28;20051;-82
2022/04/25 10:55:33;;;;;;;4.55;2.50;;;16.30;99.90;;;;;;4955136;28;20024;-88
2022/04/25 10:58:19;;;;;;;11.45;6.00;;;16.40;99.90;;;;;;4951697;28;20035;-84
2022/04/25 11:00:47;;;;;;;10.35;2.47;;;16.20;99.90;;;;;;4967881;28;20031;-87
2022/04/25 11:03:19;;;;;;;4.43;2.40;;;16.00;99.90;;;;;;4960390;28;20061;-85
2022/04/25 11:05:49;;;;;;;4.38;1.63;;;16.10;99.90;;;;;;4952078;28;20062;-89
2022/04/25 11:08:24;;;;;;;6.18;1.90;;;16.30;99.90;;;;;;4969782;28;20062;-92
2022/04/25 11:10:58;;;;;;;5.03;2.17;;;16.30;99.90;;;;;;4963553;28;20027;-94
2022/04/25 11:13:28;;;;;;;4.32;1.40;;;16.50;99.90;;;;;;4961466;28;20615;-87
2022/04/25 11:15:56;;;;;;;1.60;1.30;;;16.50;99.90;;;;;;4969333;28;20411;-85
2022/04/25 11:19:09;;;;;;;3.85;1.60;;;16.40;99.90;;;;;;4973238;28;20091;-89
2022/04/25 11:21:40;;;;;;;4.30;1.80;;;16.30;99.90;;;;;;4940284;28;20038;-86
2022/04/25 11:24:26;;;;;;;6.47;1.42;;;16.30;99.90;;;;;;4972954;28;20038;-85
2022/04/25 11:26:51;;;;;;;7.28;4.25;;;16.60;99.90;;;;;;4962739;28;20073;-86
2022/04/25 11:29:18;;;;;;;6.38;3.40;;;16.80;99.90;;;;;;4936594;28;20390;-84
2022/04/25 11:31:44;;;;;;;2.60;1.73;;;16.80;99.90;;;;;;4966888;28;20027;-86
2022/04/25 11:34:11;;;;;;;3.42;1.75;;;16.60;99.90;;;;;;4956845;28;20039;-86
2022/04/25 11:36:48;;;;;;;6.72;2.38;;;16.30;99.90;;;;;;4965126;28;20050;-80
2022/04/25 11:42:01;;;;;;;5.47;2.60;;;16.20;99.90;;;;;;4962553;28;20046;-84
2022/04/25 11:44:27;;;;;;;4.82;2.22;;;16.00;99.90;;;;;;4940800;28;20026;-83
2022/04/25 11:46:53;;;;;;;8.55;3.17;;;16.00;99.90;;;;;;4965762;28;20038;-83
2022/04/25 11:49:37;;;;;;;6.82;3.40;;;16.00;99.90;;;;;;4944749;28;20030;-79
2022/04/25 11:52:12;;;;;;;8.13;2.47;;;16.20;99.90;;;;;;4962170;28;20504;-79
2022/04/25 11:54:40;;;;;;;8.45;2.33;;;16.40;99.90;;;;;;4970640;28;20077;-80
2022/04/25 11:57:09;;;;;;;5.82;2.13;;;16.50;99.90;;;;;;4961826;28;20031;-79
2022/04/25 11:59:35;;;;;;;8.18;2.47;;;16.80;99.90;;;;;;4961587;28;20210;-81
2022/04/25 12:02:04;;;;;;;14.63;2.30;;;17.20;99.90;;;;;;4965293;28;20485;-80
2022/04/25 12:04:34;;;;;;;7.95;2.13;;;17.70;99.90;;;;;;4970574;28;20081;-82
2022/04/25 12:07:03;;;;;;;12.48;2.33;;;19.20;99.90;;;;;;4966404;28;20093;-82
2022/04/25 12:17:51;;;;;;;4.68;1.60;;;17.70;99.90;;;;;;4965310;28;20034;-82
2022/04/25 12:20:19;;;;;;;2.95;1.00;;;20.40;99.90;;;;;;4968299;28;20034;-82
2022/04/25 12:22:59;;;;;;;3.33;1.00;;;23.10;99.90;;;;;;4956074;28;20086;-83
2022/04/25 12:25:26;;;;;;;4.55;1.40;;;24.20;99.90;;;;;;4944104;28;20038;-82
2022/04/25 12:28:13;;;;;;;3.25;1.40;;;25.20;99.90;;;;;;4953388;28;20042;-82
2022/04/25 12:30:54;;;;;;;8.52;1.33;;;24.70;99.90;;;;;;4970022;28;20412;-83
2022/04/25 12:33:25;;;;;;;7.22;1.55;;;22.90;99.90;;;;;;4959855;28;20035;-80
2022/04/25 12:36:15;;;;;;;7.28;1.45;;;22.50;99.90;;;;;;4962485;28;20030;-80
2022/04/25 12:38:57;;;;;;;3.30;1.25;;;22.60;99.90;;;;;;4956999;28;20023;-80
2022/04/25 12:41:25;;;;;;;6.15;1.50;;;23.70;99.90;;;;;;4945532;28;20054;-82
2022/04/25 12:43:55;;;;;;;3.95;1.80;;;25.20;99.90;;;;;;4958040;28;20050;-83
2022/04/25 12:46:42;;;;;;;5.97;1.33;;;26.70;99.90;;;;;;4968018;28;20066;-81
2022/04/25 12:49:13;;;;;;;6.00;0.95;;;28.60;99.90;;;;;;4956119;28;20107;-80
2022/04/25 12:51:42;;;;;;;2.92;0.98;;;28.20;99.90;;;;;;4947619;28;20383;-80
2022/04/25 12:54:30;;;;;;;2.10;0.68;;;26.90;99.90;;;;;;4975149;28;20022;-82
2022/04/25 12:57:16;;;;;;;8.40;1.40;;;24.50;99.90;;;;;;4942225;28;20031;-80
2022/04/25 12:59:48;;;;;;;3.95;0.90;;;23.90;99.90;;;;;;4951712;28;20446;-82
2022/04/25 13:02:17;;;;;;;3.88;1.08;;;22.40;99.90;;;;;;4968431;28;20062;-81
2022/04/25 13:04:57;;;;;;;5.50;1.40;;;21.90;99.90;;;;;;4956135;28;20055;-79
2022/04/25 13:07:37;;;;;;;6.22;1.23;;;22.60;99.90;;;;;;4949944;28;20189;-79
2022/04/25 13:10:08;;;;;;;5.95;1.20;;;21.70;99.90;;;;;;4954076;28;20052;-82
2022/04/25 13:12:42;;;;;;;3.78;1.00;;;21.10;99.90;;;;;;4951888;28;20113;-82
2022/04/25 13:15:14;;;;;;;3.35;1.23;;;20.90;99.90;;;;;;4970257;28;20042;-84
2022/04/25 13:17:40;;;;;;;10.40;1.30;;;19.40;99.90;;;;;;4962490;28;20394;-81
2022/04/25 13:20:14;;;;;;;6.72;1.25;;;18.80;99.90;;;;;;4958229;28;20086;-84
2022/04/25 13:22:44;;;;;;;8.93;1.75;;;17.80;99.90;;;;;;4969458;28;20117;-84
2022/04/25 13:25:11;;;;;;;7.32;1.33;;;17.10;99.90;;;;;;4969965;28;20071;-84
2022/04/25 13:27:37;;;;;;;10.00;1.60;;;17.00;99.90;;;;;;4962808;28;20043;-82
2022/04/25 13:30:05;;;;;;;8.05;1.45;;;16.80;99.90;;;;;;4958076;28;20023;-84
2022/04/25 13:32:32;;;;;;;5.70;1.55;;;16.80;99.90;;;;;;4954627;28;20033;-84
2022/04/25 13:34:58;;;;;;;4.80;1.00;;;16.70;99.90;;;;;;4953431;28;20034;-84
2022/04/25 13:37:23;;;;;;;5.43;1.27;;;16.60;99.90;;;;;;4963004;28;20027;-84
2022/04/25 13:39:49;;;;;;;4.57;1.33;;;16.70;99.90;;;;;;4972468;28;20022;-85
2022/04/25 13:42:18;;;;;;;6.18;1.40;;;16.70;99.90;;;;;;4948564;28;20034;-83
2022/04/25 13:44:44;;;;;;;8.63;1.55;;;16.60;99.90;;;;;;4973061;28;20051;-84
2022/04/25 13:47:10;;;;;;;5.32;1.50;;;16.30;99.90;;;;;;4948217;28;20069;-82
2022/04/25 13:49:37;;;;;;;7.18;1.58;;;16.40;99.90;;;;;;4972018;28;20138;-83
2022/04/25 13:52:04;;;;;;;6.43;1.45;;;16.40;99.90;;;;;;4964082;28;20042;-83
2022/04/25 13:54:29;;;;;;;3.28;1.13;;;16.30;99.90;;;;;;4972714;28;20038;-83
2022/04/25 13:56:55;;;;;;;5.25;0.95;;;16.10;99.90;;;;;;4964828;28;20465;-82
2022/04/25 13:59:21;;;;;;;4.78;1.15;;;15.80;99.90;;;;;;4973539;28;20022;-83
2022/04/25 14:01:47;;;;;;;4.13;1.08;;;15.70;99.90;;;;;;4947757;28;20023;-83
2022/04/25 14:04:13;;;;;;;6.75;1.15;;;15.90;99.90;;;;;;4974226;28;20034;-82
2022/04/25 14:06:39;;;;;;;5.25;1.30;;;16.00;99.90;;;;;;4963386;28;20047;-82
2022/04/25 14:09:06;;;;;;;5.97;1.20;;;16.20;99.90;;;;;;4973897;28;20114;-81
2022/04/25 14:11:35;;;;;;;4.07;1.20;;;16.10;99.90;;;;;;4945651;28;20117;-82
2022/04/25 14:14:01;;;;;;;7.55;1.00;;;16.30;99.90;;;;;;4973990;28;20030;-82
2022/04/25 14:16:26;;;;;;;3.03;0.75;;;16.50;99.90;;;;;;4963530;28;20030;-81
2022/04/25 14:18:55;;;;;;;1.70;0.70;;;16.40;99.90;;;;;;4973702;28;20026;-80
2022/04/25 14:21:21;;;;;;;2.10;0.65;;;16.50;99.90;;;;;;4944564;28;20063;-82
2022/04/25 14:23:47;;;;;;;5.00;1.00;;;16.60;99.90;;;;;;4969979;28;20544;-80
2022/04/25 14:26:17;;;;;;;3.33;1.00;;;16.70;99.90;;;;;;4963701;28;20130;-81
2022/04/25 14:28:44;;;;;;;3.85;1.08;;;16.70;99.90;;;;;;4954295;28;20070;-83
2022/04/25 14:31:10;;;;;;;5.82;1.30;;;16.60;99.90;;;;;;4943846;28;20426;-83
2022/04/25 14:33:36;;;;;;;4.38;1.20;;;16.40;99.90;;;;;;4955692;28;20023;-84
2022/04/25 14:36:05;;;;;;;7.13;1.42;;;16.40;99.90;;;;;;4964491;28;20054;-81
2022/04/25 14:38:32;;;;;;;4.40;1.00;;;16.60;99.90;;;;;;4971082;28;20019;-82
2022/04/25 14:40:57;;;;;;;5.28;1.10;;;16.70;99.90;;;;;;4965589;28;20035;-80
2022/04/25 14:43:24;;;;;;;2.83;1.52;;;16.90;99.90;;;;;;4952694;28;20035;-80
2022/04/25 14:45:50;;;;;;;7.85;1.38;;;17.00;99.90;;;;;;4966418;28;20441;-80
2022/04/25 14:48:18;;;;;;;4.80;1.27;;;16.90;99.90;;;;;;4936694;28;20541;-80
2022/04/25 14:56:13;;;;;;;5.57;0.98;;;17.00;99.90;;;;;;4955988;28;20625;-82
2022/04/25 14:58:39;;;;;;;2.95;1.13;;;17.10;99.90;;;;;;4971944;28;20030;-82
2022/04/25 15:01:07;;;;;;;4.10;0.93;;;17.10;99.90;;;;;;4964833;28;20089;-82
2022/04/25 15:03:33;;;;;;;4.47;1.00;;;17.20;99.90;;;;;;4972061;28;20030;-82
2022/04/25 15:05:58;;;;;;;6.60;1.27;;;17.10;99.90;;;;;;4964968;28;20027;-84
2022/04/25 15:08:26;;;;;;;3.47;1.10;;;17.20;99.90;;;;;;4948334;28;20037;-82